Time;durP1;ratioP1;P1;durP2;ratioP2;P2;SDS_P1;SDS_P2;PMS_P1;PMS_P2;Temp;Humidity;BMP_temperature;BMP_pressure;BME280_temperature;BME280_humidity;BME280_pressure;Samples;Min_cycle;Max_cycle;Signal;HPM_P1;HPM_P2
2021/08/04 00:01:01;;;;;;;15.53;14.03;;;16.00;99.90;;;;;;4919436;29;20201;-70
2021/08/04 00:03:27;;;;;;;17.00;14.37;;;16.00;99.90;;;;;;4919734;29;20199;-71
2021/08/04 00:05:53;;;;;;;15.52;14.10;;;15.90;99.90;;;;;;4918476;29;20441;-70
2021/08/04 00:08:18;;;;;;;17.43;12.40;;;16.00;99.90;;;;;;4919536;29;20183;-70
2021/08/04 00:10:44;;;;;;;13.50;12.10;;;16.00;99.90;;;;;;4919565;29;20179;-71
2021/08/04 00:13:10;;;;;;;14.00;12.57;;;16.10;99.90;;;;;;4929472;29;20242;-71
2021/08/04 00:15:36;;;;;;;14.33;12.90;;;16.20;99.90;;;;;;4930456;29;20437;-71
2021/08/04 00:18:02;;;;;;;13.60;12.30;;;16.20;99.90;;;;;;4921899;29;20482;-71
2021/08/04 00:20:27;;;;;;;14.90;13.40;;;16.20;99.90;;;;;;4921060;29;20207;-70
2021/08/04 00:22:53;;;;;;;16.97;13.67;;;16.10;99.90;;;;;;4919282;29;20207;-71
2021/08/04 00:25:18;;;;;;;15.00;13.60;;;16.10;99.90;;;;;;4922316;29;20293;-70
2021/08/04 00:27:44;;;;;;;14.00;12.60;;;16.10;99.90;;;;;;4922509;29;20249;-70
2021/08/04 00:30:10;;;;;;;15.83;13.57;;;16.10;99.90;;;;;;4922164;29;20537;-70
2021/08/04 00:32:35;;;;;;;14.40;12.90;;;16.10;99.90;;;;;;4921971;29;20194;-71
2021/08/04 00:35:01;;;;;;;14.43;12.93;;;16.10;99.90;;;;;;4922813;29;20901;-71
2021/08/04 00:37:26;;;;;;;14.60;13.00;;;16.10;99.90;;;;;;4924135;29;20183;-70
2021/08/04 00:39:52;;;;;;;15.23;13.63;;;16.10;99.90;;;;;;4929921;29;20660;-70
2021/08/04 00:42:19;;;;;;;14.37;12.83;;;16.10;99.90;;;;;;4918566;29;20422;-70
2021/08/04 00:44:45;;;;;;;15.07;13.57;;;16.20;99.90;;;;;;4918660;29;20510;-71
2021/08/04 00:47:11;;;;;;;15.60;14.10;;;16.20;99.90;;;;;;4918734;29;20462;-71
2021/08/04 00:49:38;;;;;;;18.08;16.38;;;16.10;99.90;;;;;;4917935;29;20481;-71
2021/08/04 00:52:04;;;;;;;15.27;13.67;;;16.20;99.90;;;;;;4918877;29;20175;-71
2021/08/04 00:54:29;;;;;;;15.73;14.13;;;16.20;99.90;;;;;;4918255;29;20427;-71
2021/08/04 00:56:55;;;;;;;14.80;13.30;;;16.10;99.90;;;;;;4918527;29;20419;-71
2021/08/04 00:59:20;;;;;;;20.07;14.50;;;16.10;99.90;;;;;;4918345;29;20521;-71
2021/08/04 01:01:55;;;;;;;16.50;14.90;;;16.00;99.90;;;;;;4918543;29;20620;-71
2021/08/04 01:04:23;;;;;;;18.40;16.13;;;16.00;99.90;;;;;;4918116;29;20202;-71
2021/08/04 01:07:05;;;;;;;16.73;15.00;;;16.00;99.90;;;;;;4917907;29;20940;-71
2021/08/04 01:09:39;;;;;;;17.03;15.10;;;16.00;99.90;;;;;;4918743;29;20435;-70
2021/08/04 01:12:06;;;;;;;15.63;14.00;;;16.00;99.90;;;;;;4918143;29;20418;-70
2021/08/04 01:14:36;;;;;;;17.13;15.30;;;16.00;99.90;;;;;;4917501;29;20430;-72
2021/08/04 01:17:04;;;;;;;15.07;13.47;;;16.10;99.90;;;;;;4918293;29;20450;-71
2021/08/04 01:19:48;;;;;;;17.67;14.40;;;16.20;99.90;;;;;;4918117;29;20518;-70
2021/08/04 01:22:38;;;;;;;17.85;16.13;;;16.20;99.90;;;;;;4916762;29;20490;-69
2021/08/04 01:25:20;;;;;;;17.17;15.47;;;16.30;99.90;;;;;;4918075;29;20183;-69
2021/08/04 01:27:49;;;;;;;14.93;13.43;;;16.30;99.90;;;;;;4918415;29;20737;-71
2021/08/04 01:30:15;;;;;;;14.80;13.30;;;16.40;99.90;;;;;;4918078;29;20411;-70
2021/08/04 01:32:41;;;;;;;15.23;13.77;;;16.50;99.90;;;;;;4918961;29;20442;-71
2021/08/04 01:35:07;;;;;;;15.30;13.43;;;16.50;99.90;;;;;;4919426;29;20819;-70
2021/08/04 01:37:35;;;;;;;15.90;13.03;;;16.50;99.90;;;;;;4918467;29;20746;-72
2021/08/04 01:40:02;;;;;;;16.07;14.37;;;16.50;99.90;;;;;;4918456;29;20475;-68
2021/08/04 01:42:33;;;;;;;17.80;14.20;;;16.60;99.90;;;;;;4918025;29;20439;-68
2021/08/04 01:45:01;;;;;;;17.80;15.90;;;16.60;99.90;;;;;;4917739;29;20422;-71
2021/08/04 01:47:30;;;;;;;18.50;16.27;;;16.60;99.90;;;;;;4917277;29;20415;-70
2021/08/04 01:49:56;;;;;;;18.10;15.37;;;16.60;99.90;;;;;;4917791;29;20434;-70
2021/08/04 01:52:23;;;;;;;17.63;15.73;;;16.60;99.90;;;;;;4917163;29;20487;-70
2021/08/04 01:54:49;;;;;;;16.20;14.50;;;16.50;99.90;;;;;;4917291;29;20423;-70
2021/08/04 01:57:14;;;;;;;15.67;14.13;;;16.50;99.90;;;;;;4917959;29;20804;-70
2021/08/04 01:59:40;;;;;;;16.73;15.03;;;16.50;99.90;;;;;;4917681;29;20415;-68
2021/08/04 02:02:20;;;;;;;16.10;14.47;;;16.50;99.90;;;;;;4917407;29;20179;-69
2021/08/04 02:04:46;;;;;;;17.35;15.65;;;16.60;99.90;;;;;;4916705;29;20426;-69
2021/08/04 02:07:33;;;;;;;16.47;14.83;;;16.60;99.90;;;;;;4918177;29;20206;-69
2021/08/04 02:10:04;;;;;;;18.70;15.40;;;16.60;99.90;;;;;;4917615;29;20446;-69
2021/08/04 02:12:31;;;;;;;17.00;15.20;;;16.60;99.90;;;;;;4900467;29;20458;-69
2021/08/04 02:15:02;;;;;;;16.63;13.70;;;16.60;99.90;;;;;;4917431;29;20441;-69
2021/08/04 02:17:34;;;;;;;18.43;16.40;;;16.60;99.90;;;;;;4917245;29;20494;-69
2021/08/04 02:20:18;;;;;;;17.60;15.73;;;16.60;99.90;;;;;;4917119;29;20498;-69
2021/08/04 02:22:50;;;;;;;16.70;15.10;;;16.60;99.90;;;;;;4917275;29;20423;-71
2021/08/04 02:25:40;;;;;;;18.23;16.33;;;16.60;99.90;;;;;;4917031;29;20504;-70
2021/08/04 02:28:09;;;;;;;18.50;16.50;;;16.60;99.90;;;;;;4917165;29;20414;-71
2021/08/04 02:30:35;;;;;;;17.40;15.60;;;16.40;99.90;;;;;;4917679;29;20511;-69
2021/08/04 02:33:02;;;;;;;17.57;15.77;;;16.40;99.90;;;;;;4917199;29;20454;-68
2021/08/04 02:35:28;;;;;;;19.53;15.60;;;16.40;99.90;;;;;;4917152;29;20419;-69
2021/08/04 02:37:54;;;;;;;17.13;15.17;;;16.50;99.90;;;;;;4917363;29;20415;-70
2021/08/04 02:40:19;;;;;;;16.47;14.67;;;16.50;99.90;;;;;;4915817;29;20415;-70
2021/08/04 02:42:46;;;;;;;21.17;19.17;;;16.50;99.90;;;;;;4915917;29;20415;-70
2021/08/04 02:45:12;;;;;;;19.23;17.23;;;16.50;99.90;;;;;;4916953;29;20162;-70
2021/08/04 02:47:39;;;;;;;22.73;17.73;;;16.40;99.90;;;;;;4917039;29;20407;-70
2021/08/04 02:50:07;;;;;;;19.80;17.80;;;16.30;99.90;;;;;;4915831;29;20457;-70
2021/08/04 02:52:34;;;;;;;18.50;16.70;;;16.30;99.90;;;;;;4916984;29;20451;-70
2021/08/04 02:54:59;;;;;;;19.90;15.27;;;16.30;99.90;;;;;;4916784;29;20407;-70
2021/08/04 02:57:25;;;;;;;20.20;17.60;;;16.30;99.90;;;;;;4916928;29;20422;-69
2021/08/04 02:59:51;;;;;;;18.90;17.00;;;16.30;99.90;;;;;;4916832;29;20191;-69
2021/08/04 03:02:16;;;;;;;19.97;17.93;;;16.40;99.90;;;;;;4917152;29;20813;-71
2021/08/04 03:04:42;;;;;;;18.90;17.10;;;16.40;99.90;;;;;;4916813;29;20218;-70
2021/08/04 03:07:07;;;;;;;20.50;18.30;;;16.40;99.90;;;;;;4917118;29;20206;-70
2021/08/04 03:09:33;;;;;;;17.97;16.27;;;16.40;99.90;;;;;;4918526;29;20171;-69
2021/08/04 03:11:59;;;;;;;20.67;18.47;;;16.40;99.90;;;;;;4919412;29;20187;-69
2021/08/04 03:14:24;;;;;;;19.03;17.00;;;16.40;99.90;;;;;;4918723;29;20253;-70
2021/08/04 03:16:50;;;;;;;18.20;16.40;;;16.40;99.90;;;;;;4920869;29;20171;-69
2021/08/04 03:19:16;;;;;;;18.53;16.70;;;16.40;99.90;;;;;;4920488;29;20179;-69
2021/08/04 03:21:42;;;;;;;19.70;17.70;;;16.40;99.90;;;;;;4920186;29;20538;-69
2021/08/04 03:24:07;;;;;;;21.10;18.90;;;16.40;99.90;;;;;;4920576;29;20437;-69
2021/08/04 03:26:34;;;;;;;23.23;18.00;;;16.30;99.90;;;;;;4920073;29;20206;-69
2021/08/04 03:29:00;;;;;;;20.40;18.00;;;16.30;99.90;;;;;;4920704;29;20179;-70
2021/08/04 03:31:25;;;;;;;19.77;17.23;;;16.30;99.90;;;;;;4928522;29;20463;-70
2021/08/04 03:33:51;;;;;;;20.33;17.93;;;16.20;99.90;;;;;;4920259;29;20266;-70
2021/08/04 03:36:17;;;;;;;21.10;18.90;;;16.10;99.90;;;;;;4920029;29;20684;-70
2021/08/04 03:38:42;;;;;;;23.23;20.63;;;15.90;99.90;;;;;;4919825;29;20194;-69
2021/08/04 03:41:08;;;;;;;23.80;19.73;;;15.80;99.90;;;;;;4920229;29;20190;-69
2021/08/04 03:43:34;;;;;;;25.97;21.33;;;15.70;99.90;;;;;;4919948;29;20201;-69
2021/08/04 03:45:59;;;;;;;22.63;20.17;;;15.60;99.90;;;;;;4919443;29;20695;-69
2021/08/04 03:48:25;;;;;;;25.30;21.20;;;15.50;99.90;;;;;;4919977;29;20712;-70
2021/08/04 03:50:50;;;;;;;24.13;20.57;;;15.40;99.90;;;;;;4920503;29;20612;-69
2021/08/04 03:53:16;;;;;;;24.77;20.80;;;15.40;99.90;;;;;;4920893;29;20645;-70
2021/08/04 03:55:42;;;;;;;22.53;19.93;;;15.30;99.90;;;;;;4929324;29;20742;-70
2021/08/04 03:58:07;;;;;;;25.97;22.70;;;15.20;99.90;;;;;;4919139;29;20434;-70
2021/08/04 04:00:33;;;;;;;25.43;22.80;;;15.20;99.90;;;;;;4920031;29;20888;-70
2021/08/04 04:02:58;;;;;;;24.53;21.20;;;15.20;99.90;;;;;;4919873;29;20574;-69
2021/08/04 04:05:24;;;;;;;23.80;21.03;;;15.20;99.90;;;;;;4918328;29;20207;-70
2021/08/04 04:07:50;;;;;;;25.43;21.70;;;15.20;99.90;;;;;;4919866;29;20636;-69
2021/08/04 04:10:15;;;;;;;22.87;20.43;;;15.30;99.90;;;;;;4919718;29;20274;-70
2021/08/04 04:12:41;;;;;;;22.67;20.23;;;15.30;99.90;;;;;;4919745;29;20290;-70
2021/08/04 04:15:07;;;;;;;23.07;20.60;;;15.40;99.90;;;;;;4919771;29;20164;-69
2021/08/04 04:17:33;;;;;;;22.90;20.23;;;15.40;99.90;;;;;;4919657;29;20226;-69
2021/08/04 04:19:58;;;;;;;24.53;21.67;;;15.30;99.90;;;;;;4920044;29;20439;-69
2021/08/04 04:22:24;;;;;;;27.27;22.20;;;15.30;99.90;;;;;;4919230;29;20285;-69
2021/08/04 04:24:49;;;;;;;25.33;22.60;;;15.20;99.90;;;;;;4919489;29;20195;-70
2021/08/04 04:27:15;;;;;;;26.80;23.00;;;15.10;99.90;;;;;;4918361;29;20214;-69
2021/08/04 04:29:41;;;;;;;24.83;22.13;;;15.00;99.90;;;;;;4919189;29;20175;-70
2021/08/04 04:32:07;;;;;;;29.10;22.50;;;15.00;99.90;;;;;;4918970;29;20186;-70
2021/08/04 04:34:33;;;;;;;29.47;23.77;;;15.00;99.90;;;;;;4918515;29;20168;-70
2021/08/04 04:36:59;;;;;;;25.93;22.60;;;15.10;99.90;;;;;;4919338;29;20478;-70
2021/08/04 04:39:26;;;;;;;26.47;23.67;;;15.20;99.90;;;;;;4921957;29;20199;-68
2021/08/04 04:41:52;;;;;;;29.90;24.87;;;15.20;99.90;;;;;;4938231;29;20178;-71
2021/08/04 04:44:18;;;;;;;26.83;23.93;;;15.20;99.90;;;;;;4938427;29;20438;-71
2021/08/04 04:46:43;;;;;;;24.70;22.03;;;15.20;99.90;;;;;;4937718;29;20464;-70
2021/08/04 04:49:09;;;;;;;27.00;23.40;;;15.30;99.90;;;;;;4937664;29;20411;-70
2021/08/04 04:51:34;;;;;;;26.83;23.80;;;15.40;99.90;;;;;;4920788;29;20205;-70
2021/08/04 04:54:00;;;;;;;26.57;23.37;;;15.50;99.90;;;;;;4937730;29;20186;-70
2021/08/04 04:56:26;;;;;;;25.07;22.37;;;15.50;99.90;;;;;;4937632;29;20174;-69
2021/08/04 04:58:51;;;;;;;26.80;23.97;;;15.60;99.90;;;;;;4936636;29;20210;-70
2021/08/04 05:01:17;;;;;;;26.43;22.60;;;15.70;99.90;;;;;;4938093;29;20178;-70
2021/08/04 05:03:42;;;;;;;26.53;23.70;;;15.80;99.90;;;;;;4937913;29;20202;-70
2021/08/04 05:06:08;;;;;;;26.53;23.53;;;15.80;99.90;;;;;;4936611;29;20231;-70
2021/08/04 05:08:33;;;;;;;27.27;24.38;;;15.80;99.90;;;;;;4936850;29;20480;-70
2021/08/04 05:10:59;;;;;;;24.50;20.70;;;15.90;99.90;;;;;;4933441;29;20194;-70
2021/08/04 05:13:24;;;;;;;25.13;21.70;;;16.00;99.90;;;;;;4928178;29;20293;-70
2021/08/04 05:15:50;;;;;;;22.03;19.70;;;16.00;99.90;;;;;;4934156;29;20182;-70
2021/08/04 05:18:16;;;;;;;21.27;19.03;;;16.10;99.90;;;;;;4931483;29;20721;-70
2021/08/04 05:20:41;;;;;;;22.33;19.93;;;16.20;99.90;;;;;;4921255;29;20186;-70
2021/08/04 05:23:07;;;;;;;20.67;18.47;;;16.30;99.90;;;;;;4928964;29;20731;-70
2021/08/04 05:25:33;;;;;;;20.73;18.70;;;16.40;99.90;;;;;;4927623;29;20575;-70
2021/08/04 05:27:59;;;;;;;22.37;18.93;;;16.40;99.90;;;;;;4927250;29;20226;-70
2021/08/04 05:30:24;;;;;;;20.13;18.23;;;16.50;99.90;;;;;;4921558;29;20274;-70
2021/08/04 05:32:50;;;;;;;20.40;18.40;;;16.50;99.90;;;;;;4925465;29;20497;-70
2021/08/04 05:35:16;;;;;;;23.27;20.77;;;16.60;99.90;;;;;;4928235;29;20246;-70
2021/08/04 05:37:41;;;;;;;22.80;19.40;;;16.60;99.90;;;;;;4921593;29;20203;-70
2021/08/04 05:40:07;;;;;;;21.83;19.60;;;16.70;99.90;;;;;;4932416;29;20174;-71
2021/08/04 05:42:33;;;;;;;23.67;20.23;;;16.80;99.90;;;;;;4928108;29;20214;-71
2021/08/04 05:44:59;;;;;;;21.60;19.03;;;16.90;99.90;;;;;;4933336;29;20418;-71
2021/08/04 05:47:24;;;;;;;23.17;20.80;;;17.00;99.90;;;;;;4932828;29;20210;-71
2021/08/04 05:49:50;;;;;;;21.43;19.20;;;17.00;99.90;;;;;;4932728;29;20421;-71
2021/08/04 05:52:15;;;;;;;22.00;19.70;;;17.10;99.90;;;;;;4933058;29;20182;-72
2021/08/04 05:54:41;;;;;;;19.97;18.03;;;17.10;99.90;;;;;;4916408;29;20188;-71
2021/08/04 05:57:07;;;;;;;20.20;18.10;;;17.20;99.90;;;;;;4933527;29;20214;-70
2021/08/04 05:59:33;;;;;;;18.93;17.10;;;17.20;99.90;;;;;;4933120;29;20531;-70
2021/08/04 06:01:58;;;;;;;20.20;18.10;;;17.30;99.90;;;;;;4932635;29;20566;-70
2021/08/04 06:04:24;;;;;;;19.60;17.70;;;17.30;99.90;;;;;;4933340;29;20205;-70
2021/08/04 06:06:49;;;;;;;20.37;18.27;;;17.30;99.90;;;;;;4933371;29;20561;-70
2021/08/04 06:09:15;;;;;;;20.70;18.57;;;17.30;99.90;;;;;;4933149;29;20182;-70
2021/08/04 06:11:41;;;;;;;21.30;19.10;;;17.40;99.90;;;;;;4933276;29;20190;-70
2021/08/04 06:14:06;;;;;;;19.50;17.40;;;17.40;99.90;;;;;;4931664;29;20230;-70
2021/08/04 06:16:32;;;;;;;21.23;19.13;;;17.40;99.90;;;;;;4933663;29;20190;-70
2021/08/04 06:18:58;;;;;;;21.83;19.53;;;17.40;99.90;;;;;;4926901;29;20191;-70
2021/08/04 06:21:26;;;;;;;22.57;20.00;;;17.30;99.90;;;;;;4925063;29;20912;-70
2021/08/04 06:23:52;;;;;;;22.47;20.10;;;17.20;99.90;;;;;;4928434;29;20230;-70
2021/08/04 06:26:18;;;;;;;23.10;20.80;;;17.30;99.90;;;;;;4928734;29;20473;-70
2021/08/04 06:28:43;;;;;;;24.77;22.17;;;17.20;99.90;;;;;;4928458;29;20945;-70
2021/08/04 06:31:10;;;;;;;21.63;19.53;;;17.30;99.90;;;;;;4932981;29;20631;-71
2021/08/04 06:33:36;;;;;;;21.17;18.97;;;17.30;99.90;;;;;;4927642;29;20214;-70
2021/08/04 06:36:01;;;;;;;21.67;19.30;;;17.50;99.90;;;;;;4933477;29;20426;-71
2021/08/04 06:38:27;;;;;;;22.33;20.10;;;17.60;99.90;;;;;;4929078;29;20182;-71
2021/08/04 06:40:52;;;;;;;21.63;19.20;;;17.70;99.90;;;;;;4932924;29;20193;-71
2021/08/04 06:43:18;;;;;;;21.40;19.20;;;17.70;99.90;;;;;;4933735;29;20237;-71
2021/08/04 06:45:43;;;;;;;21.50;19.33;;;17.80;99.90;;;;;;4934796;29;20615;-71
2021/08/04 06:48:10;;;;;;;23.90;20.47;;;17.70;99.90;;;;;;4937971;29;20205;-70
2021/08/04 06:50:36;;;;;;;22.67;20.37;;;17.80;99.90;;;;;;4946046;29;20600;-71
2021/08/04 06:53:02;;;;;;;21.43;19.17;;;17.90;99.90;;;;;;4936997;29;20469;-71
2021/08/04 06:55:27;;;;;;;24.50;20.30;;;18.00;99.90;;;;;;4937496;29;20464;-71
2021/08/04 06:57:53;;;;;;;22.47;20.27;;;18.00;99.90;;;;;;4936005;29;20272;-71
2021/08/04 07:00:18;;;;;;;22.30;19.60;;;18.00;99.90;;;;;;4935516;29;20197;-71
2021/08/04 07:02:44;;;;;;;21.10;19.10;;;18.10;99.90;;;;;;4910601;29;20273;-71
2021/08/04 07:05:10;;;;;;;21.70;19.30;;;18.20;99.90;;;;;;4931844;29;20182;-71
2021/08/04 07:07:35;;;;;;;22.13;18.07;;;18.20;99.90;;;;;;4936765;29;20186;-71
2021/08/04 07:10:01;;;;;;;20.93;18.60;;;18.30;99.90;;;;;;4937614;29;20852;-71
2021/08/04 07:12:26;;;;;;;22.83;20.23;;;18.30;99.90;;;;;;4939958;29;20226;-72
2021/08/04 07:14:52;;;;;;;19.70;17.60;;;18.30;99.90;;;;;;4948720;29;20190;-71
2021/08/04 07:17:18;;;;;;;20.70;18.70;;;18.30;99.90;;;;;;4936304;29;20301;-71
2021/08/04 07:19:43;;;;;;;21.90;19.70;;;18.40;99.90;;;;;;4936578;29;20186;-71
2021/08/04 07:22:09;;;;;;;19.80;17.83;;;18.40;99.90;;;;;;4935961;29;20238;-71
2021/08/04 07:24:34;;;;;;;19.53;17.17;;;18.50;99.90;;;;;;4935705;29;20644;-71
2021/08/04 07:27:00;;;;;;;20.10;17.80;;;18.60;99.90;;;;;;4936043;29;20330;-71
2021/08/04 07:29:25;;;;;;;20.53;18.33;;;18.60;99.90;;;;;;4936152;29;20206;-71
2021/08/04 07:31:51;;;;;;;18.77;16.87;;;18.70;99.90;;;;;;4935549;29;20649;-71
2021/08/04 07:34:21;;;;;;;18.80;16.90;;;18.70;99.90;;;;;;4935325;29;20206;-71
2021/08/04 07:36:49;;;;;;;18.73;16.87;;;18.80;99.90;;;;;;4936619;29;20652;-70
2021/08/04 07:39:15;;;;;;;19.27;17.43;;;18.80;99.90;;;;;;4935847;29;21271;-71
2021/08/04 07:41:41;;;;;;;20.13;18.23;;;18.80;99.90;;;;;;4934717;29;20958;-71
2021/08/04 07:44:07;;;;;;;20.37;18.33;;;19.00;99.90;;;;;;4934759;29;20206;-70
2021/08/04 07:46:32;;;;;;;21.37;19.00;;;18.90;99.90;;;;;;4935471;29;20285;-70
2021/08/04 07:48:58;;;;;;;19.30;17.33;;;18.70;99.90;;;;;;4937740;29;20635;-71
2021/08/04 07:51:23;;;;;;;21.13;18.93;;;18.70;99.90;;;;;;4936458;29;20578;-71
2021/08/04 07:53:49;;;;;;;20.50;18.30;;;18.80;99.90;;;;;;4936253;29;20673;-70
2021/08/04 07:56:19;;;;;;;22.37;19.83;;;18.80;99.90;;;;;;4936445;29;20209;-71
2021/08/04 07:58:46;;;;;;;17.27;15.50;;;18.90;99.90;;;;;;4936852;29;20174;-71
2021/08/04 08:01:11;;;;;;;20.20;18.20;;;19.00;99.90;;;;;;4935499;29;20914;-71
2021/08/04 08:03:37;;;;;;;17.30;15.67;;;19.00;99.90;;;;;;4937663;29;20437;-70
2021/08/04 08:06:02;;;;;;;19.43;16.83;;;19.00;99.90;;;;;;4938202;29;20554;-70
2021/08/04 08:08:28;;;;;;;17.47;15.77;;;19.20;99.90;;;;;;4921336;29;20485;-70
2021/08/04 08:10:54;;;;;;;17.53;15.83;;;19.20;99.90;;;;;;4938753;29;20414;-70
2021/08/04 08:13:20;;;;;;;17.27;15.57;;;19.20;99.90;;;;;;4938438;29;20205;-70
2021/08/04 08:15:47;;;;;;;16.20;14.70;;;19.30;99.90;;;;;;4938537;29;20453;-71
2021/08/04 08:18:13;;;;;;;17.70;15.10;;;19.40;99.90;;;;;;4938428;29;20414;-69
2021/08/04 08:20:40;;;;;;;19.10;17.20;;;19.50;99.90;;;;;;4938118;29;20410;-70
2021/08/04 08:23:06;;;;;;;17.10;15.40;;;19.60;99.90;;;;;;4938499;29;20521;-70
2021/08/04 08:25:32;;;;;;;17.63;15.80;;;19.60;99.90;;;;;;4938054;29;20893;-70
2021/08/04 08:27:59;;;;;;;15.20;13.70;;;19.70;99.90;;;;;;4939848;29;20438;-69
2021/08/04 08:30:25;;;;;;;14.03;12.63;;;19.80;99.90;;;;;;4938287;29;20167;-70
2021/08/04 08:32:51;;;;;;;16.83;15.23;;;19.70;99.90;;;;;;4937889;29;20853;-70
2021/08/04 08:35:17;;;;;;;14.63;13.27;;;19.60;99.90;;;;;;4938082;29;20438;-70
2021/08/04 08:37:44;;;;;;;14.10;12.80;;;19.60;99.90;;;;;;4937911;29;20198;-70
2021/08/04 08:40:11;;;;;;;13.10;11.80;;;19.60;99.90;;;;;;4937938;29;20418;-70
2021/08/04 08:42:39;;;;;;;13.53;12.23;;;19.70;99.90;;;;;;4937842;29;20521;-70
2021/08/04 08:45:05;;;;;;;12.50;11.20;;;19.60;99.90;;;;;;4937758;29;20437;-71
2021/08/04 08:47:30;;;;;;;13.03;11.50;;;19.60;99.90;;;;;;4936702;29;20458;-70
2021/08/04 08:49:56;;;;;;;10.43;9.43;;;19.70;99.90;;;;;;4937808;29;20435;-70
2021/08/04 08:52:22;;;;;;;10.23;9.23;;;19.70;99.90;;;;;;4938228;29;20304;-70
2021/08/04 08:54:48;;;;;;;10.17;9.10;;;19.80;99.90;;;;;;4938059;29;20189;-71
2021/08/04 08:57:13;;;;;;;12.27;11.03;;;19.80;99.90;;;;;;4939703;29;20410;-71
2021/08/04 08:59:39;;;;;;;10.13;9.07;;;19.80;99.90;;;;;;4943248;29;20166;-71
2021/08/04 09:02:04;;;;;;;14.30;9.30;;;19.80;99.90;;;;;;4940245;29;20197;-71
2021/08/04 09:04:30;;;;;;;12.00;10.10;;;19.80;99.90;;;;;;4938069;29;20174;-71
2021/08/04 09:06:59;;;;;;;11.63;10.53;;;19.90;99.90;;;;;;4937315;29;20540;-71
2021/08/04 09:09:33;;;;;;;8.67;7.87;;;19.80;99.90;;;;;;4938107;29;20592;-71
2021/08/04 09:12:10;;;;;;;10.00;9.00;;;19.90;99.90;;;;;;4937044;29;20446;-71
2021/08/04 09:14:38;;;;;;;9.53;8.63;;;20.10;99.90;;;;;;4937004;29;20437;-71
2021/08/04 09:17:10;;;;;;;8.70;7.90;;;20.20;99.90;;;;;;4936925;29;20911;-70
2021/08/04 09:19:47;;;;;;;8.50;7.80;;;20.40;99.90;;;;;;4936996;29;20465;-70
2021/08/04 09:22:24;;;;;;;9.00;8.20;;;20.60;99.90;;;;;;4937429;29;20432;-70
2021/08/04 09:25:08;;;;;;;8.53;7.63;;;20.70;99.90;;;;;;4936906;29;20446;-70
2021/08/04 09:27:37;;;;;;;11.37;8.00;;;20.80;99.90;;;;;;4937080;29;20544;-70
2021/08/04 09:30:03;;;;;;;8.03;7.23;;;20.90;99.90;;;;;;4920007;29;20426;-70
2021/08/04 09:32:31;;;;;;;8.67;7.70;;;20.90;99.90;;;;;;4936806;29;20441;-70
2021/08/04 09:35:05;;;;;;;8.37;7.57;;;21.00;99.90;;;;;;4937106;29;20736;-71
2021/08/04 09:37:31;;;;;;;10.03;8.77;;;21.00;99.90;;;;;;4937187;29;20410;-70
2021/08/04 09:39:59;;;;;;;9.83;8.83;;;20.90;99.90;;;;;;4938649;29;20417;-71
2021/08/04 09:42:44;;;;;;;8.60;7.87;;;21.00;99.90;;;;;;4937421;29;20198;-71
2021/08/04 09:45:11;;;;;;;8.80;8.00;;;21.10;99.90;;;;;;4936660;29;20445;-71
2021/08/04 09:47:37;;;;;;;10.20;9.20;;;21.00;99.90;;;;;;4937271;29;20792;-71
2021/08/04 09:50:06;;;;;;;11.33;10.30;;;21.00;99.90;;;;;;4938293;29;20414;-70
2021/08/04 09:52:32;;;;;;;13.37;9.67;;;20.90;99.90;;;;;;4936596;29;20274;-71
2021/08/04 09:55:17;;;;;;;9.63;8.80;;;20.80;99.90;;;;;;4936860;29;20914;-71
2021/08/04 09:57:45;;;;;;;8.73;7.40;;;20.60;99.90;;;;;;4937163;29;20436;-71
2021/08/04 10:00:13;;;;;;;9.17;7.83;;;20.70;99.90;;;;;;4937766;29;20916;-71
2021/08/04 10:02:39;;;;;;;10.53;7.57;;;20.70;99.90;;;;;;4936901;29;20748;-70
2021/08/04 10:05:22;;;;;;;8.90;8.10;;;20.60;99.90;;;;;;4937812;29;20465;-70
2021/08/04 10:08:13;;;;;;;9.67;8.53;;;20.70;99.90;;;;;;4942187;29;20186;-71
2021/08/04 10:10:41;;;;;;;8.40;7.60;;;20.70;99.90;;;;;;4932411;29;20417;-71
2021/08/04 10:13:10;;;;;;;9.10;8.20;;;20.80;99.90;;;;;;4943594;29;20438;-70
2021/08/04 10:15:41;;;;;;;9.47;8.57;;;20.80;99.90;;;;;;4936984;29;20418;-70
2021/08/04 10:18:21;;;;;;;9.47;8.67;;;20.70;99.90;;;;;;4937247;29;20405;-71
2021/08/04 10:20:52;;;;;;;8.50;7.80;;;20.60;99.90;;;;;;4936857;29;20402;-71
2021/08/04 10:23:19;;;;;;;7.70;6.30;;;20.60;99.90;;;;;;4937557;29;20426;-71
2021/08/04 10:25:46;;;;;;;7.20;6.50;;;20.70;99.90;;;;;;4937093;29;20454;-71
2021/08/04 10:28:12;;;;;;;9.90;9.00;;;20.60;99.90;;;;;;4938303;29;20425;-71
2021/08/04 10:30:38;;;;;;;10.07;9.07;;;20.50;99.90;;;;;;4938472;29;20533;-71
2021/08/04 10:33:05;;;;;;;11.97;7.93;;;20.50;99.90;;;;;;4941070;29;20503;-71
2021/08/04 10:35:31;;;;;;;9.53;8.10;;;20.60;99.90;;;;;;4932296;29;20517;-71
2021/08/04 10:37:57;;;;;;;8.27;7.50;;;20.50;99.90;;;;;;4939034;29;20422;-71
2021/08/04 10:40:27;;;;;;;7.90;7.27;;;20.50;99.90;;;;;;4938264;29;20418;-71
2021/08/04 10:42:53;;;;;;;9.07;8.17;;;20.70;99.90;;;;;;4937408;29;20445;-71
2021/08/04 10:45:22;;;;;;;11.03;7.90;;;20.80;99.90;;;;;;4936759;29;20445;-71
2021/08/04 10:47:51;;;;;;;7.77;6.97;;;20.90;99.90;;;;;;4920306;29;20872;-71
2021/08/04 10:50:17;;;;;;;7.43;6.83;;;20.90;99.90;;;;;;4937655;29;20522;-70
2021/08/04 10:52:58;;;;;;;8.20;7.30;;;21.00;99.90;;;;;;4938115;29;20449;-69
2021/08/04 10:55:24;;;;;;;16.70;8.30;;;21.20;99.90;;;;;;4935939;29;20266;-70
2021/08/04 10:58:05;;;;;;;9.83;9.03;;;21.20;99.90;;;;;;4936638;29;20927;-71
2021/08/04 11:00:33;;;;;;;8.77;6.80;;;21.30;99.90;;;;;;4936585;29;20502;-71
2021/08/04 11:02:58;;;;;;;8.30;7.50;;;21.40;99.90;;;;;;4936122;29;20529;-72
2021/08/04 11:05:24;;;;;;;7.53;6.90;;;21.50;99.90;;;;;;4936813;29;20417;-71
2021/08/04 11:08:15;;;;;;;6.87;6.27;;;21.60;99.90;;;;;;4936040;29;20241;-71
2021/08/04 11:10:40;;;;;;;9.10;8.20;;;21.90;99.90;;;;;;4935908;29;20509;-71
2021/08/04 11:13:06;;;;;;;7.00;6.40;;;21.90;99.90;;;;;;4935749;29;20932;-71
2021/08/04 11:15:32;;;;;;;9.17;8.30;;;21.70;99.90;;;;;;4936463;29;20194;-71
2021/08/04 11:18:08;;;;;;;8.80;8.00;;;21.50;99.80;;;;;;4936052;29;20659;-71
2021/08/04 11:20:36;;;;;;;8.40;7.33;;;21.40;99.90;;;;;;4936356;29;20402;-71
2021/08/04 11:23:05;;;;;;;8.47;7.53;;;21.30;99.90;;;;;;4918361;29;20442;-71
2021/08/04 11:25:38;;;;;;;8.83;8.00;;;21.40;99.90;;;;;;4935501;29;20418;-71
2021/08/04 11:28:24;;;;;;;9.33;8.50;;;21.30;99.90;;;;;;4936489;29;20952;-71
2021/08/04 11:30:55;;;;;;;9.17;8.33;;;21.10;99.90;;;;;;4920665;29;20440;-71
2021/08/04 11:33:22;;;;;;;9.30;8.40;;;20.90;99.90;;;;;;4939975;29;20466;-71
2021/08/04 11:36:17;;;;;;;9.30;8.50;;;21.00;99.90;;;;;;4939877;29;20436;-70
2021/08/04 11:38:49;;;;;;;12.43;7.10;;;21.10;99.90;;;;;;4940116;29;20421;-70
2021/08/04 11:41:31;;;;;;;9.00;8.20;;;21.30;99.90;;;;;;4939517;29;20425;-70
2021/08/04 11:44:11;;;;;;;8.60;7.80;;;21.20;99.90;;;;;;4943149;29;20496;-70
2021/08/04 11:46:53;;;;;;;7.80;7.00;;;21.40;99.90;;;;;;4942053;29;20959;-71
2021/08/04 11:49:34;;;;;;;9.63;8.77;;;21.40;99.90;;;;;;4941042;29;20412;-71
2021/08/04 11:52:21;;;;;;;9.27;8.50;;;21.50;99.90;;;;;;4942250;29;20824;-70
2021/08/04 11:54:49;;;;;;;9.23;8.43;;;21.60;99.90;;;;;;4939496;29;20418;-71
2021/08/04 11:57:20;;;;;;;9.70;8.80;;;21.60;99.90;;;;;;4922838;29;20430;-69
2021/08/04 11:59:52;;;;;;;9.30;8.50;;;21.50;99.90;;;;;;4939578;29;20872;-71
2021/08/04 12:02:21;;;;;;;10.90;9.90;;;21.50;99.90;;;;;;4922741;29;20430;-70
2021/08/04 12:04:54;;;;;;;10.90;9.90;;;21.40;99.90;;;;;;4939852;29;20496;-70
2021/08/04 12:07:25;;;;;;;12.10;11.03;;;21.40;99.90;;;;;;4940024;29;20454;-70
2021/08/04 12:09:55;;;;;;;11.63;10.73;;;21.30;99.90;;;;;;4941653;29;20430;-70
2021/08/04 12:12:23;;;;;;;10.50;9.70;;;21.00;99.90;;;;;;4939232;29;20406;-71
2021/08/04 12:14:51;;;;;;;11.97;10.97;;;20.90;99.90;;;;;;4939237;29;20403;-71
2021/08/04 12:17:23;;;;;;;12.20;11.10;;;20.90;99.90;;;;;;4938918;29;20421;-70
2021/08/04 12:19:49;;;;;;;11.60;10.60;;;20.80;99.90;;;;;;4939324;29;20175;-70
2021/08/04 12:22:17;;;;;;;11.83;10.90;;;20.80;99.90;;;;;;4939253;29;20418;-70
2021/08/04 12:24:50;;;;;;;11.93;10.87;;;20.70;99.90;;;;;;4939576;29;20949;-70
2021/08/04 12:27:41;;;;;;;13.57;11.13;;;20.90;99.90;;;;;;4939443;29;20450;-70
2021/08/04 12:30:22;;;;;;;11.83;10.20;;;21.00;99.90;;;;;;4940816;29;20442;-71
2021/08/04 12:33:17;;;;;;;11.70;10.80;;;21.00;99.90;;;;;;4940761;29;20438;-70
2021/08/04 12:36:02;;;;;;;11.70;10.60;;;21.20;99.90;;;;;;4955466;29;20418;-70